sensor_id;sensor_type;location;lat;lon;timestamp;pressure;altitude;pressure_sealevel;temperature;humidity
11114;BME280;5610;52.154;9.198;2022-09-12T00:02:25;100968.09;;;13.88;100.00
11114;BME280;5610;52.154;9.198;2022-09-12T00:05:11;100958.03;;;13.92;100.00
11114;BME280;5610;52.154;9.198;2022-09-12T00:07:58;100948.16;;;13.92;100.00
11114;BME280;5610;52.154;9.198;2022-09-12T00:10:44;100958.88;;;13.92;100.00
11114;BME280;5610;52.154;9.198;2022-09-12T00:13:29;100953.94;;;13.73;100.00
11114;BME280;5610;52.154;9.198;2022-09-12T00:16:16;100946.16;;;13.70;100.00
11114;BME280;5610;52.154;9.198;2022-09-12T00:19:03;100949.03;;;13.80;100.00
11114;BME280;5610;52.154;9.198;2022-09-12T00:21:48;100948.81;;;13.83;100.00
11114;BME280;5610;52.154;9.198;2022-09-12T00:24:34;100946.88;;;13.85;100.00
11114;BME280;5610;52.154;9.198;2022-09-12T00:27:20;100946.78;;;13.87;100.00
11114;BME280;5610;52.154;9.198;2022-09-12T00:30:06;100943.34;;;13.85;100.00
11114;BME280;5610;52.154;9.198;2022-09-12T00:32:51;100950.41;;;13.86;100.00
11114;BME280;5610;52.154;9.198;2022-09-12T00:35:42;100938.84;;;13.85;100.00
11114;BME280;5610;52.154;9.198;2022-09-12T00:38:27;100938.31;;;13.80;100.00
11114;BME280;5610;52.154;9.198;2022-09-12T00:41:16;100929.66;;;13.77;100.00
11114;BME280;5610;52.154;9.198;2022-09-12T00:47:05;100934.69;;;13.68;100.00
11114;BME280;5610;52.154;9.198;2022-09-12T00:49:59;100929.88;;;13.61;100.00
11114;BME280;5610;52.154;9.198;2022-09-12T00:52:49;100930.06;;;13.58;100.00
11114;BME280;5610;52.154;9.198;2022-09-12T00:55:39;100923.56;;;13.62;100.00
11114;BME280;5610;52.154;9.198;2022-09-12T00:58:29;100931.03;;;13.57;100.00
11114;BME280;5610;52.154;9.198;2022-09-12T01:01:15;100932.97;;;13.55;100.00
11114;BME280;5610;52.154;9.198;2022-09-12T01:04:01;100918.94;;;13.51;100.00
11114;BME280;5610;52.154;9.198;2022-09-12T01:06:47;100923.53;;;13.49;100.00
11114;BME280;5610;52.154;9.198;2022-09-12T01:09:33;100926.53;;;13.44;100.00
11114;BME280;5610;52.154;9.198;2022-09-12T01:12:20;100924.19;;;13.40;100.00
11114;BME280;5610;52.154;9.198;2022-09-12T01:15:07;100920.09;;;13.34;100.00
11114;BME280;5610;52.154;9.198;2022-09-12T01:18:02;100927.28;;;13.34;100.00
11114;BME280;5610;52.154;9.198;2022-09-12T01:21:04;100927.56;;;13.29;100.00
11114;BME280;5610;52.154;9.198;2022-09-12T01:24:16;100912.59;;;13.27;100.00
11114;BME280;5610;52.154;9.198;2022-09-12T01:27:35;100915.47;;;13.24;100.00
11114;BME280;5610;52.154;9.198;2022-09-12T01:30:31;100914.06;;;13.18;100.00
11114;BME280;5610;52.154;9.198;2022-09-12T01:33:33;100901.84;;;13.14;100.00
11114;BME280;5610;52.154;9.198;2022-09-12T01:36:31;100916.06;;;13.14;100.00
11114;BME280;5610;52.154;9.198;2022-09-12T01:39:25;100920.78;;;13.11;100.00
11114;BME280;5610;52.154;9.198;2022-09-12T01:42:17;100910.09;;;13.11;100.00
11114;BME280;5610;52.154;9.198;2022-09-12T01:45:09;100907.50;;;13.09;100.00
11114;BME280;5610;52.154;9.198;2022-09-12T01:48:01;100903.00;;;13.10;100.00
11114;BME280;5610;52.154;9.198;2022-09-12T01:50:51;100905.66;;;13.10;100.00
11114;BME280;5610;52.154;9.198;2022-09-12T01:53:40;100905.66;;;13.10;100.00
11114;BME280;5610;52.154;9.198;2022-09-12T01:56:30;100901.41;;;13.07;100.00
11114;BME280;5610;52.154;9.198;2022-09-12T01:59:20;100905.34;;;13.02;100.00
11114;BME280;5610;52.154;9.198;2022-09-12T02:02:11;100892.63;;;13.05;100.00
11114;BME280;5610;52.154;9.198;2022-09-12T02:05:05;100889.09;;;13.05;100.00
11114;BME280;5610;52.154;9.198;2022-09-12T02:07:56;100896.91;;;13.08;100.00
11114;BME280;5610;52.154;9.198;2022-09-12T02:10:48;100896.78;;;13.09;100.00
11114;BME280;5610;52.154;9.198;2022-09-12T02:13:38;100888.97;;;13.06;100.00
11114;BME280;5610;52.154;9.198;2022-09-12T02:16:30;100888.25;;;13.04;100.00
11114;BME280;5610;52.154;9.198;2022-09-12T02:19:17;100883.19;;;13.00;100.00
11114;BME280;5610;52.154;9.198;2022-09-12T02:22:07;100870.91;;;12.97;100.00
11114;BME280;5610;52.154;9.198;2022-09-12T02:24:58;100880.72;;;12.97;100.00
11114;BME280;5610;52.154;9.198;2022-09-12T02:27:47;100880.94;;;12.93;100.00
11114;BME280;5610;52.154;9.198;2022-09-12T02:30:40;100881.66;;;12.96;100.00
11114;BME280;5610;52.154;9.198;2022-09-12T02:33:30;100886.16;;;12.95;100.00
11114;BME280;5610;52.154;9.198;2022-09-12T02:36:27;100879.00;;;12.96;100.00
11114;BME280;5610;52.154;9.198;2022-09-12T02:39:17;100885.31;;;12.95;100.00
11114;BME280;5610;52.154;9.198;2022-09-12T02:42:04;100882.75;;;12.93;100.00
11114;BME280;5610;52.154;9.198;2022-09-12T02:44:50;100884.69;;;12.91;100.00
11114;BME280;5610;52.154;9.198;2022-09-12T02:47:38;100882.19;;;12.88;100.00
11114;BME280;5610;52.154;9.198;2022-09-12T02:50:26;100873.31;;;12.87;100.00
11114;BME280;5610;52.154;9.198;2022-09-12T02:53:12;100882.31;;;12.86;100.00
11114;BME280;5610;52.154;9.198;2022-09-12T02:55:58;100877.69;;;12.88;100.00
11114;BME280;5610;52.154;9.198;2022-09-12T02:58:44;100878.47;;;12.90;100.00
11114;BME280;5610;52.154;9.198;2022-09-12T03:01:42;100879.09;;;12.94;100.00
11114;BME280;5610;52.154;9.198;2022-09-12T03:04:44;100886.84;;;12.99;100.00
11114;BME280;5610;52.154;9.198;2022-09-12T03:07:44;100879.78;;;12.98;100.00
11114;BME280;5610;52.154;9.198;2022-09-12T03:10:41;100875.72;;;13.05;100.00
11114;BME280;5610;52.154;9.198;2022-09-12T03:13:39;100889.09;;;13.05;100.00
11114;BME280;5610;52.154;9.198;2022-09-12T03:16:34;100886.41;;;13.05;100.00
11114;BME280;5610;52.154;9.198;2022-09-12T03:19:25;100879.38;;;13.04;100.00
11114;BME280;5610;52.154;9.198;2022-09-12T03:22:17;100873.25;;;13.02;100.00
11114;BME280;5610;52.154;9.198;2022-09-12T03:25:12;100875.28;;;12.98;100.00
11114;BME280;5610;52.154;9.198;2022-09-12T03:28:01;100874.94;;;12.90;100.00
11114;BME280;5610;52.154;9.198;2022-09-12T03:30:51;100880.03;;;12.80;100.00
11114;BME280;5610;52.154;9.198;2022-09-12T03:33:38;100873.09;;;12.78;100.00
11114;BME280;5610;52.154;9.198;2022-09-12T03:36:26;100872.34;;;12.76;100.00
11114;BME280;5610;52.154;9.198;2022-09-12T03:39:12;100874.06;;;12.77;100.00
11114;BME280;5610;52.154;9.198;2022-09-12T03:41:57;100874.69;;;12.80;100.00
11114;BME280;5610;52.154;9.198;2022-09-12T03:44:42;100876.41;;;12.81;100.00
11114;BME280;5610;52.154;9.198;2022-09-12T03:47:29;100868.19;;;12.84;100.00
11114;BME280;5610;52.154;9.198;2022-09-12T03:50:15;100871.72;;;12.85;100.00
11114;BME280;5610;52.154;9.198;2022-09-12T03:53:01;100869.91;;;12.85;100.00
11114;BME280;5610;52.154;9.198;2022-09-12T03:55:46;100870.66;;;12.87;100.00
11114;BME280;5610;52.154;9.198;2022-09-12T03:58:32;100867.34;;;12.84;100.00
11114;BME280;5610;52.154;9.198;2022-09-12T04:01:19;100874.38;;;12.85;100.00
11114;BME280;5610;52.154;9.198;2022-09-12T04:04:07;100870.84;;;12.84;100.00
11114;BME280;5610;52.154;9.198;2022-09-12T04:06:53;100871.72;;;12.85;100.00
11114;BME280;5610;52.154;9.198;2022-09-12T04:09:38;100877.16;;;12.83;100.00
11114;BME280;5610;52.154;9.198;2022-09-12T04:12:24;100886.06;;;12.84;100.00
11114;BME280;5610;52.154;9.198;2022-09-12T04:15:09;100890.84;;;12.79;100.00
11114;BME280;5610;52.154;9.198;2022-09-12T04:17:55;100880.44;;;12.74;100.00
11114;BME280;5610;52.154;9.198;2022-09-12T04:20:41;100881.81;;;12.67;100.00
11114;BME280;5610;52.154;9.198;2022-09-12T04:23:27;100880.09;;;12.66;100.00
11114;BME280;5610;52.154;9.198;2022-09-12T04:26:13;100873.44;;;12.59;100.00
11114;BME280;5610;52.154;9.198;2022-09-12T04:28:59;100879.31;;;12.51;100.00
11114;BME280;5610;52.154;9.198;2022-09-12T04:31:45;100878.66;;;12.48;100.00
11114;BME280;5610;52.154;9.198;2022-09-12T04:34:30;100877.41;;;12.39;100.00
11114;BME280;5610;52.154;9.198;2022-09-12T04:37:17;100882.25;;;12.34;100.00
11114;BME280;5610;52.154;9.198;2022-09-12T04:40:03;100876.56;;;12.38;100.00
11114;BME280;5610;52.154;9.198;2022-09-12T04:42:48;100878.78;;;12.32;100.00
11114;BME280;5610;52.154;9.198;2022-09-12T04:45:34;100880.50;;;12.33;100.00
11114;BME280;5610;52.154;9.198;2022-09-12T04:48:19;100878.13;;;12.28;100.00
11114;BME280;5610;52.154;9.198;2022-09-12T04:51:07;100882.88;;;12.37;100.00
11114;BME280;5610;52.154;9.198;2022-09-12T04:53:56;100888.31;;;12.36;100.00
11114;BME280;5610;52.154;9.198;2022-09-12T04:56:43;100887.47;;;12.35;100.00
11114;BME280;5610;52.154;9.198;2022-09-12T04:59:28;100884.13;;;12.32;100.00
11114;BME280;5610;52.154;9.198;2022-09-12T05:02:14;100890.16;;;12.35;100.00
11114;BME280;5610;52.154;9.198;2022-09-12T05:04:59;100886.50;;;12.36;100.00
11114;BME280;5610;52.154;9.198;2022-09-12T05:07:44;100889.81;;;12.40;100.00
11114;BME280;5610;52.154;9.198;2022-09-12T05:10:32;100885.78;;;12.47;100.00
11114;BME280;5610;52.154;9.198;2022-09-12T05:13:17;100895.06;;;12.56;100.00
11114;BME280;5610;52.154;9.198;2022-09-12T05:16:04;100894.72;;;12.60;100.00
11114;BME280;5610;52.154;9.198;2022-09-12T05:18:50;100892.84;;;12.62;100.00
11114;BME280;5610;52.154;9.198;2022-09-12T05:21:35;100893.91;;;12.73;100.00
11114;BME280;5610;52.154;9.198;2022-09-12T05:24:21;100894.66;;;12.75;100.00
11114;BME280;5610;52.154;9.198;2022-09-12T05:27:08;100893.22;;;12.83;100.00
11114;BME280;5610;52.154;9.198;2022-09-12T05:29:53;100893.63;;;12.77;100.00
11114;BME280;5610;52.154;9.198;2022-09-12T05:32:39;100891.06;;;12.88;100.00
11114;BME280;5610;52.154;9.198;2022-09-12T05:35:24;100889.06;;;12.92;100.00
11114;BME280;5610;52.154;9.198;2022-09-12T05:38:09;100886.50;;;13.03;100.00
11114;BME280;5610;52.154;9.198;2022-09-12T05:41:02;100886.50;;;13.03;100.00
11114;BME280;5610;52.154;9.198;2022-09-12T05:43:52;100874.66;;;13.07;100.00
11114;BME280;5610;52.154;9.198;2022-09-12T05:46:39;100890.91;;;13.17;100.00
11114;BME280;5610;52.154;9.198;2022-09-12T05:49:24;100880.13;;;13.18;100.00
11114;BME280;5610;52.154;9.198;2022-09-12T05:52:10;100883.13;;;13.14;100.00
11114;BME280;5610;52.154;9.198;2022-09-12T05:54:55;100904.03;;;13.22;100.00
11114;BME280;5610;52.154;9.198;2022-09-12T05:57:42;100888.81;;;13.22;100.00
11114;BME280;5610;52.154;9.198;2022-09-12T06:00:30;100895.47;;;13.29;100.00
11114;BME280;5610;52.154;9.198;2022-09-12T06:03:15;100895.81;;;13.10;100.00
11114;BME280;5610;52.154;9.198;2022-09-12T06:06:02;100890.53;;;13.23;100.00
11114;BME280;5610;52.154;9.198;2022-09-12T06:08:49;100889.97;;;13.18;100.00
11114;BME280;5610;52.154;9.198;2022-09-12T06:11:36;100890.78;;;13.33;100.00
11114;BME280;5610;52.154;9.198;2022-09-12T06:14:23;100884.88;;;13.40;100.00
11114;BME280;5610;52.154;9.198;2022-09-12T06:17:10;100889.81;;;13.46;100.00
11114;BME280;5610;52.154;9.198;2022-09-12T06:19:55;100888.19;;;13.57;100.00
11114;BME280;5610;52.154;9.198;2022-09-12T06:22:41;100888.81;;;13.73;100.00
11114;BME280;5610;52.154;9.198;2022-09-12T06:25:26;100892.09;;;14.02;100.00
11114;BME280;5610;52.154;9.198;2022-09-12T06:28:11;100888.09;;;14.20;100.00
11114;BME280;5610;52.154;9.198;2022-09-12T06:31:01;100883.56;;;14.46;100.00
11114;BME280;5610;52.154;9.198;2022-09-12T06:33:51;100885.59;;;14.67;100.00
11114;BME280;5610;52.154;9.198;2022-09-12T06:36:37;100882.34;;;14.74;100.00
11114;BME280;5610;52.154;9.198;2022-09-12T06:39:23;100879.88;;;14.71;100.00
11114;BME280;5610;52.154;9.198;2022-09-12T06:42:08;100880.72;;;14.72;100.00
11114;BME280;5610;52.154;9.198;2022-09-12T06:44:53;100878.69;;;14.75;100.00
11114;BME280;5610;52.154;9.198;2022-09-12T06:47:38;100874.59;;;14.94;100.00
11114;BME280;5610;52.154;9.198;2022-09-12T06:50:25;100881.00;;;15.15;100.00
11114;BME280;5610;52.154;9.198;2022-09-12T06:53:11;100883.50;;;15.29;100.00
11114;BME280;5610;52.154;9.198;2022-09-12T06:55:56;100883.34;;;15.20;100.00
11114;BME280;5610;52.154;9.198;2022-09-12T06:58:42;100875.72;;;15.37;100.00
11114;BME280;5610;52.154;9.198;2022-09-12T07:01:29;100879.72;;;15.43;100.00
11114;BME280;5610;52.154;9.198;2022-09-12T07:04:14;100883.47;;;15.76;100.00
11114;BME280;5610;52.154;9.198;2022-09-12T07:07:01;100888.09;;;15.74;100.00
11114;BME280;5610;52.154;9.198;2022-09-12T07:09:46;100881.38;;;16.02;100.00
11114;BME280;5610;52.154;9.198;2022-09-12T07:12:32;100874.41;;;15.99;100.00
11114;BME280;5610;52.154;9.198;2022-09-12T07:15:17;100873.56;;;16.21;100.00
11114;BME280;5610;52.154;9.198;2022-09-12T07:18:02;100874.34;;;16.33;100.00
11114;BME280;5610;52.154;9.198;2022-09-12T07:20:48;100878.25;;;16.40;100.00
11114;BME280;5610;52.154;9.198;2022-09-12T07:23:35;100879.22;;;16.50;100.00
11114;BME280;5610;52.154;9.198;2022-09-12T07:26:20;100881.66;;;16.53;100.00
11114;BME280;5610;52.154;9.198;2022-09-12T07:29:05;100880.94;;;16.83;100.00
11114;BME280;5610;52.154;9.198;2022-09-12T07:31:52;100873.03;;;17.02;100.00
11114;BME280;5610;52.154;9.198;2022-09-12T07:34:37;100869.69;;;17.10;100.00
11114;BME280;5610;52.154;9.198;2022-09-12T07:37:23;100869.31;;;17.36;100.00
11114;BME280;5610;52.154;9.198;2022-09-12T07:40:10;100879.31;;;17.54;100.00
11114;BME280;5610;52.154;9.198;2022-09-12T07:42:55;100865.97;;;17.53;100.00
11114;BME280;5610;52.154;9.198;2022-09-12T07:45:40;100862.44;;;17.73;100.00
11114;BME280;5610;52.154;9.198;2022-09-12T07:48:26;100864.50;;;17.91;100.00
11114;BME280;5610;52.154;9.198;2022-09-12T07:51:11;100865.00;;;18.25;100.00
11114;BME280;5610;52.154;9.198;2022-09-12T07:53:57;100863.50;;;18.42;100.00
11114;BME280;5610;52.154;9.198;2022-09-12T07:56:43;100862.53;;;18.62;100.00
11114;BME280;5610;52.154;9.198;2022-09-12T07:59:28;100873.66;;;18.78;100.00
11114;BME280;5610;52.154;9.198;2022-09-12T08:02:14;100866.53;;;18.67;100.00
11114;BME280;5610;52.154;9.198;2022-09-12T08:04:59;100866.97;;;18.82;100.00
11114;BME280;5610;52.154;9.198;2022-09-12T08:07:45;100864.53;;;19.18;100.00
11114;BME280;5610;52.154;9.198;2022-09-12T08:10:31;100858.94;;;19.29;100.00
11114;BME280;5610;52.154;9.198;2022-09-12T08:13:17;100857.63;;;19.62;100.00
11114;BME280;5610;52.154;9.198;2022-09-12T08:16:05;100847.28;;;19.85;100.00
11114;BME280;5610;52.154;9.198;2022-09-12T08:18:51;100851.69;;;20.14;100.00
11114;BME280;5610;52.154;9.198;2022-09-12T08:21:37;100851.06;;;19.65;100.00
11114;BME280;5610;52.154;9.198;2022-09-12T08:24:22;100850.72;;;19.78;100.00
11114;BME280;5610;52.154;9.198;2022-09-12T08:27:08;100854.03;;;19.99;100.00
11114;BME280;5610;52.154;9.198;2022-09-12T08:29:54;100862.34;;;20.15;100.00
11114;BME280;5610;52.154;9.198;2022-09-12T08:32:40;100862.56;;;20.32;100.00
11114;BME280;5610;52.154;9.198;2022-09-12T08:35:25;100863.94;;;20.36;100.00
11114;BME280;5610;52.154;9.198;2022-09-12T08:38:10;100856.03;;;20.52;100.00
11114;BME280;5610;52.154;9.198;2022-09-12T08:41:00;100853.09;;;20.63;100.00
11114;BME280;5610;52.154;9.198;2022-09-12T08:44:01;100854.94;;;20.63;100.00
11114;BME280;5610;52.154;9.198;2022-09-12T08:47:14;100851.09;;;20.83;100.00
11114;BME280;5610;52.154;9.198;2022-09-12T08:50:09;100848.66;;;21.16;100.00
11114;BME280;5610;52.154;9.198;2022-09-12T08:52:57;100847.56;;;21.52;100.00
11114;BME280;5610;52.154;9.198;2022-09-12T08:55:50;100850.97;;;21.88;100.00
11114;BME280;5610;52.154;9.198;2022-09-12T08:58:39;100847.94;;;22.34;100.00
11114;BME280;5610;52.154;9.198;2022-09-12T09:01:30;100840.38;;;22.78;100.00
11114;BME280;5610;52.154;9.198;2022-09-12T09:04:36;100840.56;;;23.17;100.00
11114;BME280;5610;52.154;9.198;2022-09-12T09:07:41;100834.06;;;23.51;100.00
11114;BME280;5610;52.154;9.198;2022-09-12T09:10:39;100843.19;;;23.74;100.00
11114;BME280;5610;52.154;9.198;2022-09-12T09:13:40;100842.69;;;23.79;100.00
11114;BME280;5610;52.154;9.198;2022-09-12T09:16:48;100829.25;;;23.77;99.93
11114;BME280;5610;52.154;9.198;2022-09-12T09:19:40;100823.06;;;23.92;100.00
11114;BME280;5610;52.154;9.198;2022-09-12T09:22:36;100829.47;;;24.07;99.25
11114;BME280;5610;52.154;9.198;2022-09-12T09:25:33;100827.56;;;24.47;97.21
11114;BME280;5610;52.154;9.198;2022-09-12T09:28:22;100830.13;;;24.71;92.19
11114;BME280;5610;52.154;9.198;2022-09-12T09:31:13;100814.66;;;24.86;89.93
11114;BME280;5610;52.154;9.198;2022-09-12T09:33:58;100811.59;;;24.89;90.87
11114;BME280;5610;52.154;9.198;2022-09-12T09:36:49;100813.00;;;25.00;92.18
11114;BME280;5610;52.154;9.198;2022-09-12T09:39:42;100808.78;;;24.98;92.21
11114;BME280;5610;52.154;9.198;2022-09-12T09:42:39;100819.56;;;25.14;89.18
11114;BME280;5610;52.154;9.198;2022-09-12T09:45:25;100812.03;;;25.16;84.77
11114;BME280;5610;52.154;9.198;2022-09-12T09:48:16;100799.38;;;25.23;88.57
11114;BME280;5610;52.154;9.198;2022-09-12T09:51:05;100807.09;;;25.34;80.83
11114;BME280;5610;52.154;9.198;2022-09-12T09:53:55;100809.81;;;25.64;83.15
11114;BME280;5610;52.154;9.198;2022-09-12T09:56:43;100809.81;;;25.93;79.16
11114;BME280;5610;52.154;9.198;2022-09-12T09:59:29;100795.75;;;26.11;78.08
11114;BME280;5610;52.154;9.198;2022-09-12T10:02:19;100799.50;;;26.25;72.67
11114;BME280;5610;52.154;9.198;2022-09-12T10:05:06;100790.88;;;26.43;71.03
11114;BME280;5610;52.154;9.198;2022-09-12T10:07:52;100792.78;;;26.64;69.98
11114;BME280;5610;52.154;9.198;2022-09-12T10:10:51;100791.09;;;26.63;67.42
11114;BME280;5610;52.154;9.198;2022-09-12T10:13:40;100783.78;;;26.70;66.32
11114;BME280;5610;52.154;9.198;2022-09-12T10:16:27;100781.72;;;26.72;65.25
11114;BME280;5610;52.154;9.198;2022-09-12T10:19:20;100784.16;;;27.37;67.61
11114;BME280;5610;52.154;9.198;2022-09-12T10:22:15;100767.13;;;27.77;64.00
11114;BME280;5610;52.154;9.198;2022-09-12T10:25:10;100774.63;;;28.09;62.40
11114;BME280;5610;52.154;9.198;2022-09-12T10:27:58;100768.63;;;28.34;61.73
11114;BME280;5610;52.154;9.198;2022-09-12T10:30:50;100772.69;;;28.84;57.05
11114;BME280;5610;52.154;9.198;2022-09-12T10:33:41;100767.97;;;29.44;56.44
11114;BME280;5610;52.154;9.198;2022-09-12T10:36:34;100763.66;;;29.81;53.80
11114;BME280;5610;52.154;9.198;2022-09-12T10:39:22;100760.19;;;29.54;53.68
11114;BME280;5610;52.154;9.198;2022-09-12T10:42:13;100758.91;;;29.50;52.31
11114;BME280;5610;52.154;9.198;2022-09-12T10:45:00;100761.44;;;29.52;53.67
11114;BME280;5610;52.154;9.198;2022-09-12T10:47:46;100759.72;;;29.44;52.88
11114;BME280;5610;52.154;9.198;2022-09-12T10:50:38;100758.34;;;28.76;53.95
11114;BME280;5610;52.154;9.198;2022-09-12T10:53:25;100752.44;;;28.92;54.42
11114;BME280;5610;52.154;9.198;2022-09-12T10:56:12;100746.53;;;28.62;53.94
11114;BME280;5610;52.154;9.198;2022-09-12T10:59:11;100745.25;;;28.64;53.91
11114;BME280;5610;52.154;9.198;2022-09-12T11:02:14;100746.00;;;28.25;51.05
11114;BME280;5610;52.154;9.198;2022-09-12T11:05:08;100741.94;;;27.60;52.68
11114;BME280;5610;52.154;9.198;2022-09-12T11:08:04;100744.19;;;28.65;51.77
11114;BME280;5610;52.154;9.198;2022-09-12T11:10:57;100740.38;;;28.66;49.87
11114;BME280;5610;52.154;9.198;2022-09-12T11:13:54;100736.81;;;28.86;49.86
11114;BME280;5610;52.154;9.198;2022-09-12T11:16:48;100739.31;;;28.61;48.81
11114;BME280;5610;52.154;9.198;2022-09-12T11:19:52;100737.34;;;27.67;49.36
11114;BME280;5610;52.154;9.198;2022-09-12T11:23:02;100738.44;;;27.31;50.39
11114;BME280;5610;52.154;9.198;2022-09-12T11:25:56;100732.34;;;28.45;49.03
11114;BME280;5610;52.154;9.198;2022-09-12T11:28:49;100731.03;;;29.53;47.96
11114;BME280;5610;52.154;9.198;2022-09-12T11:31:51;100726.03;;;31.08;44.89
11114;BME280;5610;52.154;9.198;2022-09-12T11:34:51;100719.16;;;31.36;41.51
11114;BME280;5610;52.154;9.198;2022-09-12T11:37:49;100711.69;;;30.81;42.33
11114;BME280;5610;52.154;9.198;2022-09-12T11:40:42;100710.59;;;31.62;41.81
11114;BME280;5610;52.154;9.198;2022-09-12T11:43:34;100718.16;;;31.85;40.99
11114;BME280;5610;52.154;9.198;2022-09-12T11:46:26;100703.03;;;32.48;40.56
11114;BME280;5610;52.154;9.198;2022-09-12T11:49:21;100708.84;;;33.80;38.79
11114;BME280;5610;52.154;9.198;2022-09-12T11:52:13;100704.81;;;35.51;36.49
11114;BME280;5610;52.154;9.198;2022-09-12T11:55:01;100702.56;;;37.25;33.60
11114;BME280;5610;52.154;9.198;2022-09-12T11:57:52;100699.66;;;39.71;30.78
11114;BME280;5610;52.154;9.198;2022-09-12T12:00:41;100695.53;;;41.10;30.12
11114;BME280;5610;52.154;9.198;2022-09-12T12:03:31;100700.97;;;41.68;28.00
11114;BME280;5610;52.154;9.198;2022-09-12T12:06:23;100696.63;;;42.19;27.53
11114;BME280;5610;52.154;9.198;2022-09-12T12:09:12;100696.25;;;42.26;27.07
11114;BME280;5610;52.154;9.198;2022-09-12T12:12:00;100690.78;;;41.78;27.60
11114;BME280;5610;52.154;9.198;2022-09-12T12:14:49;100686.97;;;41.68;27.78
11114;BME280;5610;52.154;9.198;2022-09-12T12:17:36;100678.59;;;39.94;29.00
11114;BME280;5610;52.154;9.198;2022-09-12T12:20:22;100677.56;;;39.15;29.24
11114;BME280;5610;52.154;9.198;2022-09-12T12:23:21;100674.19;;;39.23;28.46
11114;BME280;5610;52.154;9.198;2022-09-12T12:29:41;100663.56;;;40.63;28.76
11114;BME280;5610;52.154;9.198;2022-09-12T12:32:26;100663.25;;;40.94;26.93
11114;BME280;5610;52.154;9.198;2022-09-12T12:35:38;100672.97;;;40.73;26.58
11114;BME280;5610;52.154;9.198;2022-09-12T12:38:28;100669.41;;;41.63;25.64
11114;BME280;5610;52.154;9.198;2022-09-12T12:41:43;100658.88;;;43.64;24.55
11114;BME280;5610;52.154;9.198;2022-09-12T12:44:47;100654.19;;;44.94;23.02
11114;BME280;5610;52.154;9.198;2022-09-12T12:47:39;100656.56;;;46.44;22.63
11114;BME280;5610;52.154;9.198;2022-09-12T12:50:27;100641.25;;;45.24;22.67
11114;BME280;5610;52.154;9.198;2022-09-12T12:53:20;100639.63;;;44.92;23.29
11114;BME280;5610;52.154;9.198;2022-09-12T12:56:29;100638.03;;;46.35;23.66
11114;BME280;5610;52.154;9.198;2022-09-12T12:59:20;100632.28;;;48.08;21.44
11114;BME280;5610;52.154;9.198;2022-09-12T13:02:18;100631.22;;;49.16;20.22
11114;BME280;5610;52.154;9.198;2022-09-12T13:05:21;100628.25;;;49.25;20.60
11114;BME280;5610;52.154;9.198;2022-09-12T13:08:18;100621.25;;;48.15;20.71
11114;BME280;5610;52.154;9.198;2022-09-12T13:11:14;100613.06;;;48.92;20.07
11114;BME280;5610;52.154;9.198;2022-09-12T13:14:02;100603.63;;;49.01;20.00
11114;BME280;5610;52.154;9.198;2022-09-12T13:16:53;100608.00;;;49.10;20.45
11114;BME280;5610;52.154;9.198;2022-09-12T13:19:40;100599.94;;;49.49;20.32
11114;BME280;5610;52.154;9.198;2022-09-12T13:22:37;100594.78;;;49.67;19.85
11114;BME280;5610;52.154;9.198;2022-09-12T13:25:26;100593.25;;;49.17;19.47
11114;BME280;5610;52.154;9.198;2022-09-12T13:28:15;100575.41;;;49.81;20.00
11114;BME280;5610;52.154;9.198;2022-09-12T13:31:09;100574.00;;;50.47;19.17
11114;BME280;5610;52.154;9.198;2022-09-12T13:33:59;100577.53;;;50.91;19.07
11114;BME280;5610;52.154;9.198;2022-09-12T13:37:14;100570.53;;;50.10;19.17
11114;BME280;5610;52.154;9.198;2022-09-12T13:40:17;100548.75;;;49.42;20.11
11114;BME280;5610;52.154;9.198;2022-09-12T13:43:11;100558.31;;;50.21;19.01
11114;BME280;5610;52.154;9.198;2022-09-12T13:45:58;100544.81;;;49.46;20.21
11114;BME280;5610;52.154;9.198;2022-09-12T13:48:44;100544.06;;;49.21;19.78
11114;BME280;5610;52.154;9.198;2022-09-12T13:51:31;100535.59;;;48.36;19.46
11114;BME280;5610;52.154;9.198;2022-09-12T13:54:17;100534.13;;;46.71;20.50
11114;BME280;5610;52.154;9.198;2022-09-12T13:57:03;100540.09;;;46.99;20.31
11114;BME280;5610;52.154;9.198;2022-09-12T13:59:48;100533.22;;;47.59;19.57
11114;BME280;5610;52.154;9.198;2022-09-12T14:02:39;100520.41;;;48.65;19.24
11114;BME280;5610;52.154;9.198;2022-09-12T14:05:25;100520.50;;;48.56;18.94
11114;BME280;5610;52.154;9.198;2022-09-12T14:08:12;100519.94;;;46.80;20.52
11114;BME280;5610;52.154;9.198;2022-09-12T14:10:58;100518.19;;;46.75;20.10
11114;BME280;5610;52.154;9.198;2022-09-12T14:13:44;100500.16;;;48.51;19.67
11114;BME280;5610;52.154;9.198;2022-09-12T14:16:30;100505.13;;;47.96;19.83
11114;BME280;5610;52.154;9.198;2022-09-12T14:19:22;100512.06;;;47.66;20.06
11114;BME280;5610;52.154;9.198;2022-09-12T14:22:11;100492.19;;;45.41;21.33
11114;BME280;5610;52.154;9.198;2022-09-12T14:25:02;100490.25;;;44.28;22.40
11114;BME280;5610;52.154;9.198;2022-09-12T14:27:51;100497.00;;;44.66;22.13
11114;BME280;5610;52.154;9.198;2022-09-12T14:30:37;100489.81;;;44.43;22.30
11114;BME280;5610;52.154;9.198;2022-09-12T14:33:22;100492.66;;;43.09;22.77
11114;BME280;5610;52.154;9.198;2022-09-12T14:36:11;100485.41;;;45.34;21.28
11114;BME280;5610;52.154;9.198;2022-09-12T14:38:58;100480.69;;;44.86;21.03
11114;BME280;5610;52.154;9.198;2022-09-12T14:41:47;100478.00;;;44.63;21.22
11114;BME280;5610;52.154;9.198;2022-09-12T14:44:34;100474.75;;;44.96;21.05
11114;BME280;5610;52.154;9.198;2022-09-12T14:47:22;100463.75;;;43.89;21.85
11114;BME280;5610;52.154;9.198;2022-09-12T14:50:15;100468.31;;;42.08;23.41
11114;BME280;5610;52.154;9.198;2022-09-12T14:53:03;100467.78;;;40.84;23.85
11114;BME280;5610;52.154;9.198;2022-09-12T14:55:50;100461.00;;;39.21;25.27
11114;BME280;5610;52.154;9.198;2022-09-12T14:58:38;100465.81;;;36.50;27.92